Time;durP1;ratioP1;P1;durP2;ratioP2;P2;SDS_P1;SDS_P2;PMS_P1;PMS_P2;Temp;Humidity;BMP_temperature;BMP_pressure;BME280_temperature;BME280_humidity;BME280_pressure;Samples;Min_cycle;Max_cycle;Signal;HPM_P1;HPM_P2
2023/07/09 00:00:49;;;;;;;7.80;7.00;;;21.00;98.60;;;;;;5062276;28;20094;-79
2023/07/09 00:03:15;;;;;;;7.60;6.75;;;21.00;98.70;;;;;;5065275;28;20052;-79
2023/07/09 00:05:41;;;;;;;8.63;6.93;;;21.00;98.90;;;;;;5061708;28;20098;-79
2023/07/09 00:08:35;;;;;;;7.75;6.95;;;21.00;98.90;;;;;;5069213;28;20058;-79
2023/07/09 00:11:01;;;;;;;7.07;6.38;;;21.00;98.90;;;;;;5061791;28;20056;-79
2023/07/09 00:13:27;;;;;;;6.88;6.20;;;20.90;99.00;;;;;;5067596;28;20044;-79
2023/07/09 00:16:00;;;;;;;9.55;7.07;;;21.10;99.20;;;;;;5068099;28;20392;-78
2023/07/09 00:18:25;;;;;;;8.25;6.50;;;20.90;99.30;;;;;;5068295;28;20040;-79
2023/07/09 00:20:51;;;;;;;8.02;7.22;;;20.80;98.90;;;;;;5050621;28;20048;-79
2023/07/09 00:23:20;;;;;;;10.85;7.40;;;20.90;99.30;;;;;;5065300;28;20679;-79
2023/07/09 00:25:46;;;;;;;7.18;6.55;;;20.90;99.60;;;;;;5067390;28;20189;-78
2023/07/09 00:28:17;;;;;;;7.97;6.90;;;20.80;99.90;;;;;;5069164;28;20055;-79
2023/07/09 00:30:44;;;;;;;9.30;7.75;;;20.60;99.90;;;;;;5065191;28;20735;-79
2023/07/09 00:33:15;;;;;;;8.48;7.00;;;20.60;99.90;;;;;;5066795;28;20114;-79
2023/07/09 00:35:46;;;;;;;7.80;6.88;;;20.50;99.90;;;;;;5066879;28;20125;-79
2023/07/09 00:38:21;;;;;;;;;;;20.50;99.90;;;;;;5061819;28;20116;-78
2023/07/09 00:40:59;;;;;;;8.50;7.60;;;20.50;99.90;;;;;;5060274;28;19926;-78
2023/07/09 00:43:30;;;;;;;11.07;7.43;;;20.50;99.90;;;;;;5064533;28;20139;-79
2023/07/09 00:46:22;;;;;;;7.97;7.18;;;20.40;99.90;;;;;;5059376;28;20123;-79
2023/07/09 00:48:51;;;;;;;10.50;7.22;;;20.40;99.90;;;;;;5066872;28;20059;-79
2023/07/09 00:51:20;;;;;;;7.75;6.95;;;20.50;99.90;;;;;;5059294;28;20507;-78
2023/07/09 00:53:48;;;;;;;9.80;7.57;;;20.40;99.90;;;;;;5061166;28;20463;-79
2023/07/09 00:56:23;;;;;;;8.25;7.32;;;20.30;99.90;;;;;;5077176;28;21550;-79
2023/07/09 00:58:49;;;;;;;7.38;6.57;;;20.40;99.90;;;;;;5059776;28;20037;-79
2023/07/09 01:01:18;;;;;;;9.20;6.90;;;20.30;99.90;;;;;;5058905;28;20812;-78
2023/07/09 01:03:58;;;;;;;10.20;7.30;;;20.20;99.90;;;;;;5060063;28;20091;-79
2023/07/09 01:06:32;;;;;;;9.40;7.18;;;20.20;99.90;;;;;;5066096;28;20051;-79
2023/07/09 01:09:00;;;;;;;7.60;6.80;;;20.10;99.90;;;;;;5064634;28;20040;-79
2023/07/09 01:11:27;;;;;;;7.93;7.22;;;20.10;99.90;;;;;;5066212;28;20378;-79
2023/07/09 01:13:55;;;;;;;9.00;7.53;;;20.10;99.90;;;;;;5067726;28;20040;-79
2023/07/09 01:16:23;;;;;;;8.82;7.63;;;20.00;99.90;;;;;;5062266;28;20053;-79
2023/07/09 01:18:53;;;;;;;7.82;7.03;;;20.00;99.90;;;;;;5067410;28;20047;-79
2023/07/09 01:21:19;;;;;;;10.70;7.90;;;19.90;99.90;;;;;;5049259;28;20144;-79
2023/07/09 01:23:47;;;;;;;10.70;7.55;;;19.90;99.90;;;;;;5066531;28;20099;-79
2023/07/09 01:26:15;;;;;;;8.40;6.90;;;20.00;99.90;;;;;;5067192;28;20053;-79
2023/07/09 01:28:43;;;;;;;8.85;7.00;;;19.80;99.90;;;;;;5066080;28;20408;-79
2023/07/09 01:31:11;;;;;;;8.88;7.82;;;19.80;99.90;;;;;;5065849;28;20040;-79
2023/07/09 01:33:39;;;;;;;8.18;7.35;;;19.80;99.90;;;;;;5066214;28;20398;-79
2023/07/09 01:36:10;;;;;;;8.27;7.43;;;19.90;99.90;;;;;;5061640;28;20048;-79
2023/07/09 01:38:36;;;;;;;9.80;7.30;;;19.80;99.90;;;;;;5079259;28;20481;-78
2023/07/09 01:41:02;;;;;;;8.70;7.80;;;19.80;99.90;;;;;;5067982;28;20041;-79
2023/07/09 01:43:29;;;;;;;9.43;7.22;;;19.70;99.90;;;;;;5061773;28;20139;-79
2023/07/09 01:45:57;;;;;;;8.00;7.20;;;19.70;99.90;;;;;;5068521;28;20076;-79
2023/07/09 01:48:27;;;;;;;8.00;7.25;;;19.70;99.90;;;;;;5063236;28;20044;-79
2023/07/09 01:50:54;;;;;;;8.07;7.28;;;19.70;99.90;;;;;;5059787;28;20064;-79
2023/07/09 01:53:23;;;;;;;8.85;7.32;;;19.60;99.90;;;;;;5057862;28;20036;-79
2023/07/09 01:55:54;;;;;;;8.90;7.40;;;19.70;99.90;;;;;;5057960;28;20565;-79
2023/07/09 01:58:24;;;;;;;9.80;7.47;;;19.70;99.90;;;;;;5059636;28;20098;-79
2023/07/09 02:00:50;;;;;;;8.00;7.05;;;19.70;99.90;;;;;;5040820;28;20041;-79
2023/07/09 02:03:17;;;;;;;10.52;6.85;;;19.70;99.90;;;;;;5042813;28;20043;-78
2023/07/09 02:05:43;;;;;;;9.63;7.10;;;19.90;99.90;;;;;;5058597;28;20579;-78
2023/07/09 02:08:09;;;;;;;16.17;7.55;;;19.70;99.90;;;;;;5058646;28;20055;-79
2023/07/09 02:10:34;;;;;;;7.65;6.72;;;19.70;99.90;;;;;;5060433;28;20036;-79
2023/07/09 02:13:00;;;;;;;8.38;7.20;;;19.70;99.90;;;;;;5058283;28;20048;-79
2023/07/09 02:15:26;;;;;;;7.90;6.60;;;19.60;99.90;;;;;;5062385;28;20045;-78
2023/07/09 02:17:52;;;;;;;7.65;6.90;;;19.60;99.90;;;;;;5066867;28;20059;-79
2023/07/09 02:20:19;;;;;;;8.20;6.55;;;19.70;99.90;;;;;;5064709;28;20056;-78
2023/07/09 02:22:45;;;;;;;8.30;7.50;;;19.70;99.90;;;;;;5066144;28;20445;-79
2023/07/09 02:25:11;;;;;;;7.95;7.05;;;19.70;99.90;;;;;;5048750;28;20083;-79
2023/07/09 02:27:37;;;;;;;9.82;7.38;;;19.70;99.90;;;;;;5066930;28;20045;-79
2023/07/09 02:30:07;;;;;;;8.43;7.20;;;19.70;99.90;;;;;;5064873;28;20400;-79
2023/07/09 02:32:33;;;;;;;8.45;7.60;;;19.70;99.90;;;;;;5066406;28;20037;-79
2023/07/09 02:34:58;;;;;;;8.20;7.13;;;19.70;99.90;;;;;;5066537;28;20040;-79
2023/07/09 02:37:26;;;;;;;8.27;7.43;;;19.60;99.90;;;;;;5060073;28;20094;-79
2023/07/09 02:39:52;;;;;;;8.80;7.82;;;19.60;99.90;;;;;;5063248;28;20049;-79
2023/07/09 02:42:19;;;;;;;8.07;7.20;;;19.70;99.90;;;;;;5065408;28;20045;-78
2023/07/09 02:44:46;;;;;;;8.98;8.07;;;19.60;99.90;;;;;;5067212;28;20055;-79
2023/07/09 02:47:13;;;;;;;7.93;7.10;;;19.60;99.90;;;;;;5065868;28;20056;-79
2023/07/09 02:49:39;;;;;;;9.45;6.95;;;19.60;99.90;;;;;;5062032;28;20059;-79
2023/07/09 02:52:06;;;;;;;8.07;7.28;;;19.50;99.90;;;;;;5062584;28;20076;-79
2023/07/09 02:54:32;;;;;;;10.75;7.50;;;19.50;99.90;;;;;;5083608;28;20045;-79
2023/07/09 02:56:58;;;;;;;9.05;7.88;;;19.40;99.90;;;;;;5065689;28;20070;-79
2023/07/09 02:59:26;;;;;;;8.07;7.22;;;19.40;99.90;;;;;;5061978;28;20127;-79
2023/07/09 03:01:52;;;;;;;8.18;7.38;;;19.40;99.90;;;;;;5061158;28;20151;-79
2023/07/09 03:04:20;;;;;;;9.15;7.22;;;19.40;99.90;;;;;;5045268;28;20041;-79
2023/07/09 03:06:46;;;;;;;8.05;7.25;;;19.40;99.90;;;;;;5059200;28;20055;-78
2023/07/09 03:09:11;;;;;;;8.40;7.55;;;19.40;99.90;;;;;;5064068;28;20040;-79
2023/07/09 03:11:37;;;;;;;8.60;7.38;;;19.40;99.90;;;;;;5063988;28;20045;-79
2023/07/09 03:14:03;;;;;;;9.05;7.45;;;19.30;99.90;;;;;;5061381;28;20080;-79
2023/07/09 03:16:32;;;;;;;8.73;7.70;;;19.30;99.90;;;;;;5063688;28;20480;-79
2023/07/09 03:18:58;;;;;;;8.95;7.25;;;19.20;99.90;;;;;;5043666;28;20502;-79
2023/07/09 03:21:25;;;;;;;9.98;7.80;;;19.20;99.90;;;;;;5061613;28;20055;-79
2023/07/09 03:23:51;;;;;;;8.25;7.45;;;19.20;99.90;;;;;;5068208;28;20045;-79
2023/07/09 03:26:17;;;;;;;8.75;7.82;;;19.20;99.90;;;;;;5069105;28;20072;-79
2023/07/09 03:28:43;;;;;;;10.13;7.75;;;19.20;99.90;;;;;;5069654;28;20080;-79
2023/07/09 03:31:08;;;;;;;9.00;8.07;;;19.10;99.90;;;;;;5068960;28;20117;-79
2023/07/09 03:33:34;;;;;;;11.48;7.60;;;19.20;99.90;;;;;;5068858;28;20045;-79
2023/07/09 03:36:00;;;;;;;10.80;7.75;;;19.30;99.90;;;;;;5066179;28;20045;-79
2023/07/09 03:38:25;;;;;;;8.75;7.60;;;19.20;99.90;;;;;;5062819;28;20048;-79
2023/07/09 03:40:54;;;;;;;8.52;7.70;;;19.00;99.90;;;;;;5068963;28;20431;-79
2023/07/09 03:43:21;;;;;;;9.80;7.50;;;19.30;99.90;;;;;;5067449;28;20090;-79
2023/07/09 03:45:47;;;;;;;10.48;7.50;;;19.20;99.90;;;;;;5065381;28;20404;-79
2023/07/09 03:48:15;;;;;;;10.48;7.95;;;19.30;99.90;;;;;;5066913;28;20044;-79
2023/07/09 03:50:43;;;;;;;10.27;7.53;;;19.40;99.90;;;;;;5064587;28;20049;-78
2023/07/09 03:53:09;;;;;;;11.90;8.48;;;19.30;99.90;;;;;;5044363;28;20430;-79
2023/07/09 03:55:34;;;;;;;9.85;7.78;;;19.50;99.90;;;;;;5044389;28;20168;-79
2023/07/09 03:58:00;;;;;;;9.95;7.60;;;19.30;99.90;;;;;;5069218;28;20142;-78
2023/07/09 04:00:25;;;;;;;10.40;7.95;;;19.40;99.90;;;;;;5060815;28;20132;-79
2023/07/09 04:02:51;;;;;;;9.05;7.55;;;19.40;99.90;;;;;;5061175;28;20083;-79
2023/07/09 04:05:17;;;;;;;10.00;8.05;;;19.40;99.90;;;;;;5064561;28;20090;-79
2023/07/09 04:07:43;;;;;;;11.15;8.35;;;19.50;99.90;;;;;;5064767;28;20044;-79
2023/07/09 04:10:09;;;;;;;9.98;8.00;;;19.60;99.90;;;;;;5067489;28;20352;-78
2023/07/09 04:12:36;;;;;;;10.75;7.80;;;19.60;99.90;;;;;;5064237;28;20058;-79
2023/07/09 04:15:03;;;;;;;9.23;8.20;;;19.60;99.90;;;;;;5064630;28;20891;-78
2023/07/09 04:17:28;;;;;;;11.13;7.30;;;19.70;99.90;;;;;;5064437;28;20463;-78
2023/07/09 04:19:54;;;;;;;10.68;8.23;;;19.80;99.90;;;;;;5063838;28;20143;-78
2023/07/09 04:22:21;;;;;;;8.02;7.07;;;19.90;99.90;;;;;;5065256;28;20996;-79
2023/07/09 04:24:46;;;;;;;12.38;7.97;;;20.00;99.90;;;;;;5064712;28;20075;-79
2023/07/09 04:27:13;;;;;;;9.65;7.80;;;20.00;99.90;;;;;;5068237;28;20453;-78
2023/07/09 04:29:40;;;;;;;10.98;7.78;;;20.20;99.90;;;;;;5069017;28;20060;-79
2023/07/09 04:32:06;;;;;;;8.13;7.32;;;20.20;99.90;;;;;;5051851;28;20109;-79
2023/07/09 04:34:32;;;;;;;8.40;7.60;;;20.30;99.90;;;;;;5067003;28;20091;-79
2023/07/09 04:36:58;;;;;;;8.48;7.68;;;20.40;99.90;;;;;;5061772;28;20048;-79
2023/07/09 04:39:24;;;;;;;12.00;8.38;;;20.40;99.90;;;;;;5064021;28;20132;-78
2023/07/09 04:41:49;;;;;;;9.57;8.27;;;20.60;99.90;;;;;;5064317;28;20140;-78
2023/07/09 04:44:15;;;;;;;16.52;7.70;;;20.50;99.90;;;;;;5064381;28;20087;-78
2023/07/09 04:46:41;;;;;;;9.95;7.93;;;20.30;99.90;;;;;;5063991;28;20127;-79
2023/07/09 04:49:07;;;;;;;9.38;7.68;;;20.60;99.90;;;;;;5047355;28;20455;-78
2023/07/09 04:51:33;;;;;;;9.25;7.78;;;20.70;99.90;;;;;;5064750;28;20052;-78
2023/07/09 04:54:02;;;;;;;8.82;7.93;;;20.70;99.90;;;;;;5065628;28;20047;-78
2023/07/09 04:56:29;;;;;;;9.25;8.27;;;20.80;99.90;;;;;;5065277;28;20052;-79
2023/07/09 04:58:55;;;;;;;9.20;7.70;;;20.90;99.90;;;;;;5062387;28;20064;-78
2023/07/09 05:01:21;;;;;;;9.20;7.53;;;20.90;99.90;;;;;;5064519;28;20040;-79
2023/07/09 05:03:46;;;;;;;13.05;8.40;;;21.10;99.90;;;;;;5064222;28;20097;-78
2023/07/09 05:06:14;;;;;;;11.15;8.80;;;21.30;99.90;;;;;;5040783;28;20120;-78
2023/07/09 05:08:41;;;;;;;8.63;7.75;;;21.60;99.90;;;;;;5063467;28;20131;-78
2023/07/09 05:11:07;;;;;;;10.13;7.85;;;21.50;99.90;;;;;;5064577;28;20044;-78
2023/07/09 05:13:32;;;;;;;11.13;8.23;;;21.90;99.90;;;;;;5047080;28;20045;-78
2023/07/09 05:15:58;;;;;;;9.48;7.93;;;21.70;99.90;;;;;;5064782;28;20045;-78
2023/07/09 05:18:24;;;;;;;8.10;7.30;;;21.80;99.90;;;;;;5048126;28;20036;-79
2023/07/09 05:20:49;;;;;;;8.38;7.57;;;22.00;99.90;;;;;;5063735;28;20540;-79
2023/07/09 05:23:15;;;;;;;9.48;8.57;;;22.00;99.90;;;;;;5064479;28;20098;-79
2023/07/09 05:25:41;;;;;;;9.25;8.25;;;22.10;99.90;;;;;;5061926;28;20041;-79
2023/07/09 05:28:06;;;;;;;10.57;8.35;;;22.20;99.90;;;;;;5064268;28;20040;-79
2023/07/09 05:30:32;;;;;;;12.50;8.80;;;22.30;99.90;;;;;;5064223;28;20032;-79
2023/07/09 05:32:59;;;;;;;10.57;8.48;;;22.40;99.90;;;;;;5063006;28;20051;-80
2023/07/09 05:35:25;;;;;;;9.90;7.88;;;22.50;99.90;;;;;;5049550;28;20040;-80
2023/07/09 05:37:52;;;;;;;10.68;8.68;;;22.90;99.90;;;;;;5066399;28;20056;-80
2023/07/09 05:40:18;;;;;;;11.43;8.70;;;22.70;99.90;;;;;;5064355;28;20033;-80
2023/07/09 05:42:44;;;;;;;10.25;8.45;;;23.00;99.90;;;;;;5050950;28;20094;-78
2023/07/09 05:45:10;;;;;;;9.55;8.32;;;22.80;99.90;;;;;;5069205;28;20372;-78
2023/07/09 05:47:35;;;;;;;11.95;8.80;;;22.90;99.90;;;;;;5067230;28;20177;-80
2023/07/09 05:50:01;;;;;;;9.45;8.43;;;22.90;99.90;;;;;;5066930;28;20443;-82
2023/07/09 05:52:29;;;;;;;9.95;8.77;;;23.10;99.90;;;;;;5067614;28;20407;-81
2023/07/09 05:54:55;;;;;;;12.07;9.70;;;23.40;99.90;;;;;;5067378;28;20147;-81
2023/07/09 05:57:21;;;;;;;10.57;9.48;;;23.60;99.90;;;;;;5066062;28;20152;-81
2023/07/09 05:59:47;;;;;;;10.77;9.20;;;23.80;99.90;;;;;;5063152;28;20354;-81
2023/07/09 06:02:14;;;;;;;10.32;9.30;;;23.10;99.90;;;;;;5063170;28;20043;-81
2023/07/09 06:04:41;;;;;;;13.38;9.25;;;23.50;99.90;;;;;;5065757;28;20087;-81
2023/07/09 06:07:08;;;;;;;12.63;9.88;;;23.50;99.90;;;;;;5048001;28;20032;-82
2023/07/09 06:09:34;;;;;;;12.82;10.77;;;23.60;99.90;;;;;;5066006;28;20447;-82
2023/07/09 06:12:03;;;;;;;24.20;10.70;;;23.90;99.90;;;;;;5065870;28;20049;-82
2023/07/09 06:14:29;;;;;;;15.30;9.63;;;24.10;99.90;;;;;;5049794;28;20047;-82
2023/07/09 06:16:54;;;;;;;12.52;10.30;;;24.70;99.80;;;;;;5049349;28;20045;-82
2023/07/09 06:19:22;;;;;;;11.20;9.48;;;24.70;99.20;;;;;;5066149;28;20503;-82
2023/07/09 06:21:48;;;;;;;13.13;10.88;;;25.10;98.80;;;;;;5045776;28;20132;-81
2023/07/09 06:24:13;;;;;;;12.88;9.77;;;25.30;98.10;;;;;;5064876;28;20471;-82
2023/07/09 06:26:39;;;;;;;11.32;9.02;;;25.60;97.40;;;;;;5066752;28;20489;-82
2023/07/09 06:29:05;;;;;;;12.98;10.45;;;26.10;97.00;;;;;;5065752;28;20036;-81
2023/07/09 06:31:31;;;;;;;14.10;10.20;;;26.00;96.10;;;;;;5061506;28;20141;-82
2023/07/09 06:33:57;;;;;;;11.55;9.27;;;26.30;95.80;;;;;;5054433;28;20143;-83
2023/07/09 06:36:22;;;;;;;11.75;9.98;;;26.70;95.30;;;;;;5066246;28;20040;-82
2023/07/09 06:38:48;;;;;;;11.35;9.50;;;27.00;94.50;;;;;;5049895;28;20048;-83
2023/07/09 06:41:14;;;;;;;12.05;9.43;;;27.10;93.60;;;;;;5066005;28;20072;-82
2023/07/09 06:43:40;;;;;;;10.95;9.82;;;27.10;93.50;;;;;;5066619;28;20136;-81
2023/07/09 06:46:09;;;;;;;10.63;8.77;;;27.00;93.70;;;;;;5066423;28;20119;-81
2023/07/09 06:48:35;;;;;;;10.55;9.45;;;26.70;94.00;;;;;;5057970;28;20040;-82
2023/07/09 06:51:01;;;;;;;10.98;9.50;;;26.60;94.30;;;;;;5061518;28;20463;-82
2023/07/09 06:53:28;;;;;;;10.77;9.68;;;26.20;94.20;;;;;;5047681;28;20045;-81
2023/07/09 06:55:58;;;;;;;11.52;9.30;;;26.10;94.50;;;;;;5065383;28;20503;-82
2023/07/09 06:58:25;;;;;;;10.75;8.68;;;26.00;94.50;;;;;;5062924;28;20488;-82
2023/07/09 07:00:51;;;;;;;10.80;8.98;;;25.90;94.70;;;;;;5063670;28;20069;-82
2023/07/09 07:03:18;;;;;;;10.00;9.00;;;25.90;94.80;;;;;;5049005;28;20044;-81
2023/07/09 07:05:45;;;;;;;11.77;9.05;;;26.20;94.90;;;;;;5059793;28;20075;-81
2023/07/09 07:08:12;;;;;;;10.40;9.23;;;26.00;94.80;;;;;;5066369;28;20037;-81
2023/07/09 07:10:38;;;;;;;11.40;9.00;;;26.10;95.10;;;;;;5048132;28;20044;-82
2023/07/09 07:13:03;;;;;;;12.15;9.63;;;26.20;95.20;;;;;;5061988;28;20130;-82
2023/07/09 07:15:29;;;;;;;11.75;8.75;;;26.30;94.80;;;;;;5062074;28;20080;-82
2023/07/09 07:17:54;;;;;;;14.07;9.27;;;26.40;94.70;;;;;;5066060;28;20052;-82
2023/07/09 07:20:20;;;;;;;10.75;8.70;;;26.50;94.50;;;;;;5065746;28;20056;-82
2023/07/09 07:22:46;;;;;;;9.82;8.13;;;26.80;94.40;;;;;;5063260;28;20037;-81
2023/07/09 07:25:12;;;;;;;12.82;9.48;;;26.90;94.30;;;;;;5065804;28;20036;-82
2023/07/09 07:27:38;;;;;;;10.27;8.45;;;27.00;93.90;;;;;;5065325;28;20361;-82
2023/07/09 07:30:08;;;;;;;13.77;9.27;;;27.10;93.80;;;;;;5068354;28;20060;-81
2023/07/09 07:32:35;;;;;;;10.60;8.02;;;27.20;93.30;;;;;;5053354;28;20036;-81
2023/07/09 07:35:00;;;;;;;10.15;9.02;;;27.40;93.20;;;;;;5066774;28;20053;-82
2023/07/09 07:37:26;;;;;;;13.90;9.75;;;27.40;92.80;;;;;;5052896;28;20487;-78
2023/07/09 07:39:52;;;;;;;10.63;8.70;;;27.40;92.70;;;;;;5070178;28;20099;-78
2023/07/09 07:42:17;;;;;;;9.70;8.65;;;27.70;93.60;;;;;;5069190;28;20052;-78
2023/07/09 07:44:43;;;;;;;9.93;7.25;;;27.70;93.40;;;;;;5069266;28;20070;-78
2023/07/09 07:47:08;;;;;;;11.32;8.38;;;27.80;93.20;;;;;;5069101;28;20036;-79
2023/07/09 07:49:34;;;;;;;9.02;8.00;;;28.10;92.80;;;;;;5061119;28;20439;-78
2023/07/09 07:52:03;;;;;;;10.60;8.70;;;28.30;93.10;;;;;;5070540;28;20124;-78
2023/07/09 07:54:30;;;;;;;11.13;8.10;;;28.50;92.30;;;;;;5067065;28;20048;-78
2023/07/09 07:56:55;;;;;;;7.95;7.22;;;28.50;91.70;;;;;;5060053;28;20030;-78
2023/07/09 07:59:21;;;;;;;9.38;7.32;;;28.80;91.70;;;;;;5065342;28;20032;-78
2023/07/09 08:01:48;;;;;;;9.07;7.55;;;28.80;91.80;;;;;;5063530;28;20045;-78
2023/07/09 08:04:14;;;;;;;8.48;7.45;;;29.00;91.90;;;;;;5054312;28;20124;-78
2023/07/09 08:06:40;;;;;;;9.55;8.27;;;29.10;91.40;;;;;;5068849;28;20172;-79
2023/07/09 08:09:05;;;;;;;11.38;8.43;;;29.20;90.30;;;;;;5069890;28;20043;-79
2023/07/09 08:11:32;;;;;;;9.93;7.25;;;29.20;90.00;;;;;;5068193;28;20056;-79
2023/07/09 08:13:58;;;;;;;8.70;7.47;;;29.20;89.90;;;;;;5061049;28;20045;-78
2023/07/09 08:16:23;;;;;;;8.15;7.28;;;29.40;89.80;;;;;;5068437;28;20062;-79
2023/07/09 08:18:51;;;;;;;10.10;7.63;;;29.50;89.90;;;;;;5066140;28;20487;-78
2023/07/09 08:21:17;;;;;;;9.40;7.40;;;29.50;89.30;;;;;;5066886;28;20049;-79
2023/07/09 08:23:43;;;;;;;10.93;7.65;;;29.60;88.00;;;;;;5064766;28;20033;-79
2023/07/09 08:26:09;;;;;;;10.18;7.45;;;29.70;87.20;;;;;;5069207;28;20064;-78
2023/07/09 08:28:35;;;;;;;10.10;7.20;;;29.80;86.80;;;;;;5069010;28;20083;-79
2023/07/09 08:31:00;;;;;;;7.85;7.05;;;29.80;85.10;;;;;;5068680;28;20051;-81
2023/07/09 08:33:26;;;;;;;9.05;6.72;;;29.80;84.10;;;;;;5061863;28;20119;-81
2023/07/09 08:35:53;;;;;;;8.85;6.93;;;29.80;83.40;;;;;;5067978;28;20040;-81
2023/07/09 08:38:20;;;;;;;7.63;6.53;;;29.80;82.80;;;;;;5060018;28;20132;-80
2023/07/09 08:41:00;;;;;;;11.25;6.75;;;29.90;83.20;;;;;;5067235;28;20044;-81
2023/07/09 08:43:44;;;;;;;9.73;6.53;;;30.00;83.80;;;;;;5050804;28;20086;-81
2023/07/09 08:46:24;;;;;;;9.55;7.13;;;30.00;83.70;;;;;;5067604;28;20084;-81
2023/07/09 08:48:50;;;;;;;9.52;7.40;;;30.10;82.80;;;;;;5067335;28;20045;-81
2023/07/09 08:51:34;;;;;;;6.72;5.90;;;30.10;83.10;;;;;;5050034;28;20063;-81
2023/07/09 08:54:01;;;;;;;8.75;6.30;;;30.20;84.50;;;;;;5061077;28;20040;-81
2023/07/09 08:56:31;;;;;;;7.65;6.32;;;30.30;83.30;;;;;;5068780;28;20198;-81
2023/07/09 08:59:00;;;;;;;6.90;6.20;;;30.40;83.00;;;;;;5067198;28;20049;-81
2023/07/09 09:01:36;;;;;;;6.40;5.80;;;30.40;81.10;;;;;;5068698;28;20036;-82
2023/07/09 09:04:18;;;;;;;8.50;6.93;;;30.40;80.80;;;;;;5067870;28;20416;-81
2023/07/09 09:06:50;;;;;;;6.80;5.68;;;30.40;81.70;;;;;;5066978;28;20048;-81
2023/07/09 09:09:46;;;;;;;7.80;6.30;;;30.50;80.50;;;;;;5068417;28;20643;-81
2023/07/09 09:12:12;;;;;;;7.60;6.88;;;30.50;79.60;;;;;;5057457;28;20060;-81
2023/07/09 09:14:52;;;;;;;8.40;6.70;;;30.60;79.60;;;;;;5067046;28;20048;-81
2023/07/09 09:17:20;;;;;;;9.23;6.55;;;30.70;79.90;;;;;;5061586;28;20500;-80
2023/07/09 09:19:54;;;;;;;8.20;6.32;;;30.80;80.70;;;;;;5066007;28;20508;-80
2023/07/09 09:22:24;;;;;;;9.13;6.55;;;30.80;79.30;;;;;;5066679;28;20117;-81
2023/07/09 09:25:08;;;;;;;7.53;6.00;;;30.80;78.50;;;;;;5083867;28;20053;-81
2023/07/09 09:27:34;;;;;;;6.32;5.72;;;30.90;79.30;;;;;;5049665;28;20052;-80
2023/07/09 09:29:59;;;;;;;7.28;6.18;;;31.00;79.70;;;;;;5048904;28;20393;-81
2023/07/09 09:32:29;;;;;;;6.82;5.53;;;31.00;79.60;;;;;;5063031;28;20052;-80
2023/07/09 09:34:55;;;;;;;7.63;6.40;;;31.20;79.20;;;;;;5063902;28;20040;-81
2023/07/09 09:37:26;;;;;;;8.60;6.07;;;31.30;78.30;;;;;;5063514;28;20045;-78
2023/07/09 09:39:52;;;;;;;6.95;5.93;;;31.30;76.80;;;;;;5065245;28;20048;-80
2023/07/09 09:42:18;;;;;;;6.10;5.50;;;31.40;76.20;;;;;;5065560;28;20789;-79
2023/07/09 09:44:44;;;;;;;9.10;6.05;;;31.40;75.90;;;;;;5068292;28;20368;-80
2023/07/09 09:47:13;;;;;;;7.28;6.03;;;31.50;75.10;;;;;;5049563;28;20047;-79
2023/07/09 09:49:43;;;;;;;8.07;5.95;;;31.60;75.70;;;;;;5054948;28;20051;-80
2023/07/09 09:52:18;;;;;;;9.43;5.95;;;31.60;74.30;;;;;;5059763;28;20060;-79
2023/07/09 09:55:01;;;;;;;6.10;5.13;;;31.70;75.20;;;;;;5060432;28;20420;-79
2023/07/09 09:57:27;;;;;;;7.53;5.60;;;31.70;74.10;;;;;;5065988;28;20497;-79
2023/07/09 09:59:54;;;;;;;9.15;6.32;;;31.80;73.60;;;;;;5062514;28;20036;-79
2023/07/09 10:02:25;;;;;;;8.05;5.50;;;31.90;72.80;;;;;;5046362;28;20560;-79
2023/07/09 10:04:51;;;;;;;7.73;5.43;;;31.90;72.80;;;;;;5059209;28;20119;-79
2023/07/09 10:07:32;;;;;;;6.60;5.80;;;31.90;73.50;;;;;;5067749;28;20443;-79
2023/07/09 10:09:58;;;;;;;7.70;5.27;;;31.90;71.60;;;;;;5059661;28;20036;-80
2023/07/09 10:12:42;;;;;;;7.30;5.40;;;31.90;70.80;;;;;;5067661;28;20420;-81
2023/07/09 10:15:24;;;;;;;6.63;5.30;;;32.00;70.60;;;;;;5059963;28;20212;-79
2023/07/09 10:18:03;;;;;;;7.18;5.20;;;32.10;68.70;;;;;;5067079;28;20132;-81
2023/07/09 10:21:06;;;;;;;12.00;5.32;;;32.10;69.70;;;;;;5066383;28;20113;-81
2023/07/09 10:24:03;;;;;;;5.85;5.07;;;32.10;68.80;;;;;;5039654;28;20064;-80
2023/07/09 10:26:41;;;;;;;10.48;5.47;;;32.10;67.10;;;;;;5038255;28;20063;-81
2023/07/09 10:29:06;;;;;;;5.80;5.10;;;32.10;68.80;;;;;;5062437;28;20044;-80
2023/07/09 10:31:41;;;;;;;6.07;5.47;;;32.20;69.60;;;;;;5049495;28;20063;-82
2023/07/09 10:34:14;;;;;;;5.20;4.70;;;32.30;68.70;;;;;;5061609;28;20052;-81
2023/07/09 10:36:51;;;;;;;8.30;5.25;;;32.30;68.30;;;;;;5065233;28;20525;-80
2023/07/09 10:39:23;;;;;;;6.85;4.97;;;32.30;68.30;;;;;;5065367;28;20045;-82
2023/07/09 10:41:53;;;;;;;5.38;4.68;;;32.20;68.40;;;;;;5064053;28;20186;-82
2023/07/09 10:44:24;;;;;;;6.20;4.72;;;32.20;68.40;;;;;;5063152;28;20052;-83
2023/07/09 10:46:55;;;;;;;6.88;4.97;;;32.30;68.30;;;;;;5041644;28;20036;-82
2023/07/09 10:49:24;;;;;;;6.88;5.20;;;32.40;67.90;;;;;;5064181;28;20446;-82
2023/07/09 10:52:27;;;;;;;7.38;5.05;;;32.50;66.90;;;;;;5067005;28;20105;-81
2023/07/09 10:54:55;;;;;;;6.80;4.85;;;32.50;65.10;;;;;;5073580;28;20144;-79
2023/07/09 10:57:27;;;;;;;6.30;5.43;;;32.50;67.30;;;;;;5064583;28;20139;-81
2023/07/09 10:59:53;;;;;;;6.57;5.00;;;32.40;66.80;;;;;;5067282;28;20097;-79
2023/07/09 11:02:29;;;;;;;9.65;5.75;;;32.50;67.00;;;;;;5057809;28;20091;-81
2023/07/09 11:05:03;;;;;;;8.13;4.97;;;32.50;67.80;;;;;;5068267;28;20090;-80
2023/07/09 11:08:01;;;;;;;6.65;5.13;;;32.50;66.60;;;;;;5069168;28;20040;-80
2023/07/09 11:10:31;;;;;;;6.88;5.10;;;32.60;67.40;;;;;;5080490;28;20075;-80
2023/07/09 11:13:36;;;;;;;5.78;4.85;;;32.50;67.00;;;;;;5057387;28;20045;-79
2023/07/09 11:16:04;;;;;;;7.65;4.80;;;32.60;68.30;;;;;;5006081;28;20049;-79
2023/07/09 11:18:35;;;;;;;6.70;4.60;;;32.60;67.00;;;;;;5060407;28;20087;-81
2023/07/09 11:21:13;;;;;;;6.03;4.72;;;32.60;66.10;;;;;;5062317;28;20075;-81
2023/07/09 11:23:51;;;;;;;6.32;4.60;;;32.60;66.20;;;;;;5069732;28;20135;-80
2023/07/09 11:26:36;;;;;;;5.18;4.57;;;32.60;65.00;;;;;;5068760;28;20404;-80
2023/07/09 11:29:02;;;;;;;5.65;4.88;;;32.80;65.80;;;;;;5059660;28;20105;-81
2023/07/09 11:31:39;;;;;;;5.38;4.45;;;32.90;65.10;;;;;;5068823;28;20052;-81
2023/07/09 11:34:13;;;;;;;6.80;4.80;;;32.90;63.70;;;;;;5061611;28;20063;-80
2023/07/09 11:36:50;;;;;;;6.38;4.15;;;32.90;63.30;;;;;;5070158;28;20051;-80
2023/07/09 11:39:42;;;;;;;5.75;4.20;;;32.90;63.40;;;;;;5045767;28;20045;-81
2023/07/09 11:42:25;;;;;;;5.38;4.25;;;32.90;65.50;;;;;;5060944;28;20048;-81
2023/07/09 11:45:06;;;;;;;7.40;4.72;;;33.10;64.40;;;;;;5069097;28;20479;-80
2023/07/09 11:47:55;;;;;;;5.93;3.90;;;33.20;64.60;;;;;;5062050;28;20116;-81
2023/07/09 11:50:25;;;;;;;4.68;4.22;;;33.30;63.40;;;;;;5083385;28;20063;-80
2023/07/09 11:53:02;;;;;;;6.20;4.27;;;33.30;62.90;;;;;;5070568;28;20124;-81
2023/07/09 11:55:45;;;;;;;6.55;4.07;;;33.30;61.20;;;;;;5061244;28;20369;-82
2023/07/09 11:58:13;;;;;;;5.72;4.20;;;33.30;62.10;;;;;;5048690;28;20045;-81
2023/07/09 12:01:13;;;;;;;5.07;4.53;;;33.40;62.30;;;;;;5068134;28;20143;-81
2023/07/09 12:03:43;;;;;;;5.53;4.40;;;33.50;62.80;;;;;;5065390;28;20412;-81
2023/07/09 12:06:18;;;;;;;6.05;4.53;;;33.50;62.70;;;;;;5052710;28;20040;-82
2023/07/09 12:08:46;;;;;;;5.90;3.78;;;33.50;61.10;;;;;;5068643;28;20153;-81
2023/07/09 12:11:34;;;;;;;7.57;4.25;;;33.60;61.70;;;;;;5069087;28;20048;-83
2023/07/09 12:14:06;;;;;;;4.65;4.07;;;33.60;61.30;;;;;;5045991;28;20035;-82
2023/07/09 12:16:37;;;;;;;5.60;4.43;;;33.60;60.90;;;;;;5060470;28;20060;-82
2023/07/09 12:19:03;;;;;;;7.25;4.18;;;33.60;60.30;;;;;;5069681;28;20536;-79
2023/07/09 12:21:30;;;;;;;7.35;4.30;;;33.60;60.70;;;;;;5067379;28;20051;-80
2023/07/09 12:23:56;;;;;;;7.95;4.55;;;33.80;61.00;;;;;;5068084;28;20784;-79
2023/07/09 12:26:22;;;;;;;5.72;4.25;;;33.80;61.30;;;;;;5059318;28;20068;-80
2023/07/09 12:28:56;;;;;;;5.82;4.13;;;33.90;60.80;;;;;;5057887;28;20044;-80
2023/07/09 12:31:28;;;;;;;7.45;4.85;;;33.80;60.40;;;;;;5065234;28;20044;-79
2023/07/09 12:33:55;;;;;;;5.07;4.63;;;33.90;60.30;;;;;;5062203;28;20472;-80
2023/07/09 12:36:23;;;;;;;6.18;4.38;;;33.80;60.60;;;;;;5061642;28;20041;-81
2023/07/09 12:38:51;;;;;;;5.25;4.53;;;33.80;59.80;;;;;;5062761;28;20048;-79
2023/07/09 12:41:24;;;;;;;4.57;4.10;;;33.80;59.80;;;;;;5063223;28;20044;-81
2023/07/09 12:43:53;;;;;;;5.78;4.57;;;34.00;60.30;;;;;;5077949;28;20072;-80
2023/07/09 12:46:23;;;;;;;7.95;4.43;;;34.00;60.90;;;;;;5055014;28;20045;-81
2023/07/09 12:48:52;;;;;;;7.00;4.68;;;34.10;60.90;;;;;;5062628;28;20386;-81
2023/07/09 12:51:25;;;;;;;7.10;4.47;;;34.10;60.10;;;;;;5043647;28;20060;-80
2023/07/09 12:54:12;;;;;;;6.00;4.22;;;34.20;60.10;;;;;;5061808;28;20123;-80